Аэропорт: Стригино. Нижний Новгород

ICAO: UWGG

METAR:
2024-04-22 22:00:00
UWGG 222200Z 26003MPS CAVOK 13/05 Q1017 R18L/090070 NOSIG
TAF:
2024-04-22 19:51:00
TAF UWGG 221951Z 2221/2321 28003MPS 8000 SCT030CB TX14/2312Z TN08/2301Z